createdAt,value
2019-05-05T00:01:20.887Z,1.33
2019-05-05T00:04:09.287Z,0.90
2019-05-05T00:06:39.193Z,1.20
2019-05-05T00:09:08.802Z,1.20
2019-05-05T00:12:00.218Z,1.40
2019-05-05T00:14:37.215Z,1.43
2019-05-05T00:17:18.849Z,1.47
2019-05-05T00:19:48.316Z,1.80
2019-05-05T00:22:17.890Z,1.47
2019-05-05T00:24:48.794Z,1.33
2019-05-05T00:27:18.131Z,1.57
2019-05-05T00:29:47.655Z,1.87
2019-05-05T00:32:17.173Z,1.87
2019-05-05T00:34:46.584Z,1.37
2019-05-05T00:37:16.105Z,1.50
2019-05-05T00:39:45.586Z,1.80
2019-05-05T00:42:15.520Z,1.87
2019-05-05T00:44:44.849Z,1.73
2019-05-05T00:47:31.478Z,1.60
2019-05-05T00:50:05.477Z,1.73
2019-05-05T00:52:35.164Z,1.77
2019-05-05T00:55:05.024Z,1.90
2019-05-05T00:57:34.801Z,1.93
2019-05-05T01:00:05.137Z,2.00
2019-05-05T01:02:50.373Z,2.03
2019-05-05T01:05:44.713Z,1.83
2019-05-05T01:08:18.518Z,2.13
2019-05-05T01:10:47.530Z,2.13
2019-05-05T01:13:24.555Z,2.10
2019-05-05T01:16:05.330Z,2.37
2019-05-05T01:18:35.111Z,2.53
2019-05-05T01:21:04.586Z,2.23
2019-05-05T01:23:34.935Z,2.23
2019-05-05T01:26:05.063Z,3.00
2019-05-05T01:28:35.539Z,3.23
2019-05-05T01:31:09.081Z,2.67
2019-05-05T01:33:44.863Z,2.47
2019-05-05T01:36:14.867Z,2.67
2019-05-05T01:38:49.556Z,2.93
2019-05-05T01:41:31.942Z,2.77
2019-05-05T01:44:00.984Z,2.60
2019-05-05T01:46:30.130Z,3.00
2019-05-05T01:48:59.168Z,3.30
2019-05-05T01:51:28.249Z,4.00
2019-05-05T01:53:57.319Z,2.87
2019-05-05T01:56:26.322Z,3.97
2019-05-05T01:58:56.787Z,3.07
2019-05-05T02:01:25.882Z,3.03
2019-05-05T02:03:55.053Z,4.07
2019-05-05T02:06:24.841Z,3.37
2019-05-05T02:08:54.762Z,3.30
2019-05-05T02:11:24.714Z,3.23
2019-05-05T02:13:54.581Z,3.47
2019-05-05T02:16:25.388Z,3.17
2019-05-05T02:18:54.632Z,3.97
2019-05-05T02:21:27.071Z,3.83
2019-05-05T02:24:07.014Z,3.93
2019-05-05T02:26:36.270Z,3.80
2019-05-05T02:29:24.763Z,4.87
2019-05-05T02:32:11.701Z,3.70
2019-05-05T02:34:51.635Z,3.77
2019-05-05T02:37:20.688Z,3.13
2019-05-05T02:40:02.046Z,3.97
2019-05-05T02:42:29.550Z,4.37
2019-05-05T02:45:31.508Z,3.87
2019-05-05T02:48:10.350Z,3.43
2019-05-05T02:51:02.014Z,3.73
2019-05-05T02:53:34.105Z,3.33
2019-05-05T02:56:25.870Z,3.70
2019-05-05T02:58:56.583Z,3.90
2019-05-05T03:01:38.603Z,3.40
2019-05-05T03:04:07.685Z,3.90
2019-05-05T03:06:43.598Z,3.50
2019-05-05T03:09:13.788Z,3.10
2019-05-05T03:11:43.730Z,3.60
2019-05-05T03:14:14.317Z,3.60
2019-05-05T03:16:44.882Z,4.50
2019-05-05T03:19:14.226Z,3.43
2019-05-05T03:21:44.171Z,3.20
2019-05-05T03:24:14.369Z,3.00
2019-05-05T03:26:44.338Z,3.57
2019-05-05T03:29:17.346Z,2.83
2019-05-05T03:31:46.395Z,3.23
2019-05-05T03:34:16.447Z,3.40
2019-05-05T03:36:45.775Z,3.67
2019-05-05T03:39:26.855Z,3.23
2019-05-05T03:42:21.250Z,2.90
2019-05-05T03:45:04.191Z,2.40
2019-05-05T03:47:33.794Z,2.83
2019-05-05T03:50:04.327Z,3.10
2019-05-05T03:52:34.625Z,2.97
2019-05-05T03:55:07.820Z,3.10
2019-05-05T03:57:37.060Z,3.57
2019-05-05T04:00:07.594Z,3.10
2019-05-05T04:02:50.812Z,3.20
2019-05-05T04:05:29.792Z,3.20
2019-05-05T04:07:59.244Z,3.50
2019-05-05T04:10:28.423Z,3.40
2019-05-05T04:12:58.433Z,5.03
2019-05-05T04:15:29.170Z,3.43
2019-05-05T04:18:07.468Z,3.80
2019-05-05T04:20:41.627Z,4.17
2019-05-05T04:23:14.242Z,3.33
2019-05-05T04:26:03.794Z,3.17
2019-05-05T04:28:34.537Z,2.93
2019-05-05T04:31:04.188Z,3.13
2019-05-05T04:33:34.177Z,2.70
2019-05-05T04:36:03.871Z,2.10
2019-05-05T04:38:34.704Z,3.20
2019-05-05T04:41:03.972Z,3.07
2019-05-05T04:43:33.872Z,2.40
2019-05-05T04:46:04.567Z,2.63
2019-05-05T04:48:41.166Z,2.93
2019-05-05T04:51:17.428Z,2.20
2019-05-05T04:54:04.149Z,2.23
2019-05-05T04:56:34.348Z,2.43
2019-05-05T04:59:04.079Z,2.33
2019-05-05T05:01:33.725Z,2.37
2019-05-05T05:04:13.749Z,2.57
2019-05-05T05:06:46.313Z,3.03
2019-05-05T05:09:17.159Z,2.87
2019-05-05T05:11:54.742Z,2.53
2019-05-05T05:14:24.681Z,2.73
2019-05-05T05:16:56.173Z,2.90
2019-05-05T05:19:26.684Z,2.67
2019-05-05T05:22:01.846Z,2.67
2019-05-05T05:24:28.875Z,3.23
2019-05-05T05:26:58.481Z,3.10
2019-05-05T05:29:27.489Z,2.97
2019-05-05T05:31:56.617Z,3.27
2019-05-05T05:34:25.744Z,3.40
2019-05-05T05:36:54.970Z,4.00
2019-05-05T05:39:33.580Z,3.17
2019-05-05T05:42:04.527Z,3.50
2019-05-05T05:44:41.590Z,3.80
2019-05-05T05:47:21.115Z,3.07
2019-05-05T05:50:04.016Z,3.20
2019-05-05T05:52:34.385Z,3.17
2019-05-05T05:55:04.065Z,2.93
2019-05-05T05:57:34.574Z,3.43
2019-05-05T06:00:10.754Z,3.40
2019-05-05T06:02:39.910Z,3.30
2019-05-05T06:05:09.041Z,3.27
2019-05-05T06:07:39.263Z,3.30
2019-05-05T06:10:21.344Z,4.07
2019-05-05T06:12:41.678Z,2.77
2019-05-05T06:15:10.732Z,3.43
2019-05-05T06:17:40.891Z,2.80
2019-05-05T06:20:09.941Z,3.27
2019-05-05T06:22:39.127Z,4.00
2019-05-05T06:25:08.820Z,2.77
2019-05-05T06:27:37.963Z,3.30
2019-05-05T06:30:08.299Z,3.37
2019-05-05T06:32:37.344Z,2.90
2019-05-05T06:35:06.435Z,2.93
2019-05-05T06:37:38.214Z,2.87
2019-05-05T06:40:08.897Z,2.80
2019-05-05T06:43:04.449Z,3.00
2019-05-05T06:45:41.658Z,3.67
2019-05-05T06:48:10.845Z,3.57
2019-05-05T06:50:39.946Z,3.70
2019-05-05T06:53:09.063Z,3.43
2019-05-05T06:55:38.137Z,3.47
2019-05-05T06:58:08.453Z,3.30
2019-05-05T07:00:37.482Z,3.47
2019-05-05T07:03:07.864Z,3.20
2019-05-05T07:05:37.000Z,3.30
2019-05-05T07:08:06.356Z,5.00
2019-05-05T07:10:35.490Z,3.33
2019-05-05T07:13:05.045Z,3.77
2019-05-05T07:15:34.329Z,3.60
2019-05-05T07:18:03.777Z,3.60
2019-05-05T07:20:34.676Z,4.53
2019-05-05T07:23:05.461Z,3.80
2019-05-05T07:25:42.728Z,3.50
2019-05-05T07:28:05.603Z,3.80
2019-05-05T07:30:34.783Z,2.83
2019-05-05T07:33:04.589Z,3.50
2019-05-05T07:35:53.373Z,3.13
2019-05-05T07:38:13.826Z,4.17
2019-05-05T07:40:43.931Z,3.70
2019-05-05T07:43:14.632Z,3.37
2019-05-05T07:45:44.556Z,4.13
2019-05-05T07:48:13.994Z,3.37
2019-05-05T07:50:47.968Z,3.50
2019-05-05T07:53:17.520Z,3.40
2019-05-05T07:55:45.009Z,3.50
2019-05-05T07:58:14.083Z,3.77
2019-05-05T08:00:43.778Z,3.50
2019-05-05T08:03:14.348Z,3.33
2019-05-05T08:05:44.332Z,3.50
2019-05-05T08:08:14.046Z,3.20
2019-05-05T08:10:43.865Z,3.10
2019-05-05T08:13:14.057Z,3.37
2019-05-05T08:15:56.254Z,3.30
2019-05-05T08:18:24.284Z,3.13
2019-05-05T08:20:56.354Z,3.23
2019-05-05T08:23:40.413Z,3.17
2019-05-05T08:26:15.170Z,3.80
2019-05-05T08:28:54.316Z,3.43
2019-05-05T08:31:41.227Z,2.93
2019-05-05T08:34:10.406Z,2.70
2019-05-05T08:36:39.583Z,3.50
2019-05-05T08:39:08.628Z,3.17
2019-05-05T08:41:37.629Z,3.50
2019-05-05T08:44:06.760Z,3.27
2019-05-05T08:46:35.765Z,3.30
2019-05-05T08:49:04.842Z,3.07
2019-05-05T08:51:33.988Z,3.23
2019-05-05T08:54:03.891Z,3.37
2019-05-05T08:56:34.347Z,2.73
2019-05-05T08:59:03.770Z,3.33
2019-05-05T09:01:34.297Z,3.23
2019-05-05T09:04:04.164Z,3.10
2019-05-05T09:06:34.185Z,3.80
2019-05-05T09:09:06.293Z,3.20
2019-05-05T09:11:35.486Z,3.03
2019-05-05T09:14:24.076Z,3.50
2019-05-05T09:16:53.797Z,3.97
2019-05-05T09:19:24.126Z,3.80
2019-05-05T09:21:54.119Z,3.43
2019-05-05T09:24:41.331Z,3.10
2019-05-05T09:27:28.382Z,3.33
2019-05-05T09:29:57.578Z,2.77
2019-05-05T09:32:26.722Z,3.23
2019-05-05T09:34:55.796Z,2.83
2019-05-05T09:37:24.847Z,2.57
2019-05-05T09:39:54.196Z,3.30
2019-05-05T09:42:23.700Z,3.20
2019-05-05T09:44:54.164Z,2.77
2019-05-05T09:47:24.016Z,3.20
2019-05-05T09:49:54.942Z,2.73
2019-05-05T09:52:24.464Z,3.40
2019-05-05T09:54:54.420Z,3.27
2019-05-05T09:57:23.809Z,3.03
2019-05-05T09:59:55.409Z,2.90
2019-05-05T10:02:24.428Z,3.10
2019-05-05T10:04:54.672Z,3.43
2019-05-05T10:07:25.554Z,3.07
2019-05-05T10:09:54.711Z,2.80
2019-05-05T10:12:23.782Z,2.77
2019-05-05T10:14:54.205Z,2.83
2019-05-05T10:17:24.594Z,3.03
2019-05-05T10:19:54.689Z,2.67
2019-05-05T10:22:23.954Z,2.70
2019-05-05T10:24:57.713Z,2.90
2019-05-05T10:27:26.755Z,2.97
2019-05-05T10:29:55.813Z,2.47
2019-05-05T10:32:27.478Z,2.60
2019-05-05T10:35:04.436Z,2.77
2019-05-05T10:37:34.860Z,2.63
2019-05-05T10:40:04.554Z,3.00
2019-05-05T10:42:53.697Z,2.67
2019-05-05T10:45:24.507Z,3.00
2019-05-05T10:47:55.016Z,2.87
2019-05-05T10:50:24.837Z,2.90
2019-05-05T10:52:53.938Z,3.13
2019-05-05T10:55:23.884Z,3.17
2019-05-05T10:57:54.305Z,2.67
2019-05-05T11:00:44.344Z,2.50
2019-05-05T11:03:14.933Z,2.97
2019-05-05T11:05:44.967Z,2.63
2019-05-05T11:08:15.232Z,2.33
2019-05-05T11:10:45.188Z,1.90
2019-05-05T11:13:14.392Z,2.20
2019-05-05T11:15:44.393Z,2.00
2019-05-05T11:18:14.855Z,2.70
2019-05-05T11:20:44.742Z,2.30
2019-05-05T11:23:14.960Z,2.23
2019-05-05T11:25:44.604Z,2.13
2019-05-05T11:28:13.743Z,2.30
2019-05-05T11:30:43.715Z,2.30
2019-05-05T11:33:30.450Z,2.77
2019-05-05T11:36:10.079Z,1.90
2019-05-05T11:38:41.478Z,2.27
2019-05-05T11:41:09.877Z,2.30
2019-05-05T11:43:38.896Z,2.03
2019-05-05T11:46:09.480Z,2.00
2019-05-05T11:48:38.486Z,2.10
2019-05-05T11:51:07.618Z,1.77
2019-05-05T11:53:36.611Z,1.97
2019-05-05T11:56:05.654Z,1.80
2019-05-05T11:58:34.715Z,1.67
2019-05-05T12:01:03.962Z,1.90
2019-05-05T12:03:34.011Z,1.60
2019-05-05T12:06:03.955Z,1.83
2019-05-05T12:08:34.591Z,2.10
2019-05-05T12:11:05.427Z,1.93
2019-05-05T12:13:34.489Z,2.07
2019-05-05T12:16:04.888Z,1.70
2019-05-05T12:18:34.437Z,1.93
2019-05-05T12:21:05.088Z,2.20
2019-05-05T12:23:34.400Z,1.60
2019-05-05T12:26:21.814Z,2.27
2019-05-05T12:29:02.735Z,2.00
2019-05-05T12:31:33.870Z,1.77
2019-05-05T12:34:03.932Z,2.20
2019-05-05T12:36:34.174Z,2.00
2019-05-05T12:39:05.307Z,2.37
2019-05-05T12:41:34.426Z,3.30
2019-05-05T12:44:04.511Z,2.07
2019-05-05T12:47:04.866Z,2.33
2019-05-05T12:49:34.038Z,2.10
2019-05-05T12:52:04.588Z,2.80
2019-05-05T12:54:33.789Z,1.73
2019-05-05T12:57:04.408Z,2.00
2019-05-05T12:59:33.961Z,2.27
2019-05-05T13:02:03.806Z,1.40
2019-05-05T13:04:33.945Z,1.70
2019-05-05T13:07:04.946Z,1.87
2019-05-05T13:09:33.894Z,1.33
2019-05-05T13:12:04.498Z,1.73
2019-05-05T13:14:33.744Z,2.07
2019-05-05T13:17:16.797Z,1.97
2019-05-05T13:20:05.554Z,2.00
2019-05-05T13:22:47.862Z,1.63
2019-05-05T13:25:55.913Z,1.67
2019-05-05T13:28:23.335Z,1.70
2019-05-05T13:30:54.042Z,1.63
2019-05-05T13:33:24.698Z,1.30
2019-05-05T13:35:53.874Z,1.97
2019-05-05T13:38:24.114Z,1.90
2019-05-05T13:40:54.447Z,2.10
2019-05-05T13:43:23.881Z,1.70
2019-05-05T13:45:59.242Z,2.77
2019-05-05T13:48:30.079Z,2.37
2019-05-05T13:51:04.151Z,2.40
2019-05-05T13:53:34.255Z,2.70
2019-05-05T13:56:11.514Z,2.87
2019-05-05T13:58:34.375Z,2.60
2019-05-05T14:01:03.851Z,3.00
2019-05-05T14:03:34.142Z,2.80
2019-05-05T14:06:04.757Z,3.00
2019-05-05T14:08:36.235Z,2.33
2019-05-05T14:11:04.762Z,2.73
2019-05-05T14:13:34.253Z,2.23
2019-05-05T14:16:05.567Z,2.60
2019-05-05T14:18:34.894Z,2.83
2019-05-05T14:21:03.947Z,2.60
2019-05-05T14:23:35.179Z,2.70
2019-05-05T14:26:07.182Z,2.50
2019-05-05T14:28:36.268Z,2.50
2019-05-05T14:31:10.850Z,2.47
2019-05-05T14:33:57.604Z,2.23
2019-05-05T14:36:50.701Z,2.03
2019-05-05T14:39:23.939Z,1.90
2019-05-05T14:41:53.947Z,2.10
2019-05-05T14:44:24.033Z,2.20
2019-05-05T14:46:53.239Z,1.93
2019-05-05T14:49:24.583Z,1.90
2019-05-05T14:51:53.961Z,2.40
2019-05-05T14:54:23.364Z,2.07
2019-05-05T14:56:54.442Z,2.30
2019-05-05T14:59:25.355Z,1.80
2019-05-05T15:01:54.779Z,2.33
2019-05-05T15:04:25.683Z,2.13
2019-05-05T15:07:16.767Z,1.97
2019-05-05T15:09:48.961Z,2.20
2019-05-05T15:12:37.399Z,2.13
2019-05-05T15:15:07.297Z,1.90
2019-05-05T15:17:36.748Z,1.90
2019-05-05T15:20:07.025Z,2.53
2019-05-05T15:22:36.340Z,1.77
2019-05-05T15:25:06.714Z,1.87
2019-05-05T15:27:36.011Z,2.30
2019-05-05T15:30:06.061Z,2.20
2019-05-05T15:32:35.315Z,2.03
2019-05-05T15:35:04.870Z,1.90
2019-05-05T15:37:38.788Z,2.57
2019-05-05T15:40:08.135Z,1.93
2019-05-05T15:42:37.697Z,2.27
2019-05-05T15:45:07.510Z,1.90
2019-05-05T15:47:38.196Z,2.37
2019-05-05T15:50:07.660Z,2.30
2019-05-05T15:52:36.857Z,2.60
2019-05-05T15:55:06.192Z,2.27
2019-05-05T15:57:35.430Z,3.37
2019-05-05T16:00:04.600Z,2.03
2019-05-05T16:02:36.012Z,2.17
2019-05-05T16:05:04.945Z,2.20
2019-05-05T16:07:34.053Z,2.40
2019-05-05T16:10:04.131Z,2.50
2019-05-05T16:12:36.491Z,2.20
2019-05-05T16:15:21.824Z,2.40
2019-05-05T16:18:09.862Z,2.30
2019-05-05T16:20:44.349Z,1.77
2019-05-05T16:23:19.054Z,2.10
2019-05-05T16:25:48.149Z,2.00
2019-05-05T16:28:17.208Z,1.90
2019-05-05T16:30:46.474Z,2.03
2019-05-05T16:33:15.569Z,2.10
2019-05-05T16:35:44.540Z,2.10
2019-05-05T16:38:14.906Z,1.90
2019-05-05T16:40:44.605Z,2.40
2019-05-05T16:43:16.557Z,2.40
2019-05-05T16:45:44.694Z,2.00
2019-05-05T16:48:13.794Z,2.50
2019-05-05T16:50:44.112Z,2.43
2019-05-05T16:53:34.544Z,2.30
2019-05-05T16:56:04.509Z,2.10
2019-05-05T16:58:33.782Z,2.10
2019-05-05T17:01:03.804Z,1.80
2019-05-05T17:03:32.936Z,1.70
2019-05-05T17:06:03.742Z,2.13
2019-05-05T17:08:33.781Z,2.40
2019-05-05T17:11:02.946Z,1.83
2019-05-05T17:13:49.611Z,1.93
2019-05-05T17:16:36.452Z,2.03
2019-05-05T17:19:13.917Z,2.00
2019-05-05T17:22:01.236Z,2.47
2019-05-05T17:24:34.455Z,2.20
2019-05-05T17:27:03.618Z,2.07
2019-05-05T17:29:34.418Z,2.43
2019-05-05T17:32:03.674Z,2.87
2019-05-05T17:34:34.057Z,2.17
2019-05-05T17:37:04.305Z,1.90
2019-05-05T17:39:35.871Z,2.60
2019-05-05T17:42:24.006Z,2.03
2019-05-05T17:45:03.750Z,2.10
2019-05-05T17:47:54.898Z,2.23
2019-05-05T17:50:43.993Z,2.20
2019-05-05T17:53:41.169Z,1.90
2019-05-05T17:56:11.147Z,1.90
2019-05-05T17:58:40.139Z,2.57
2019-05-05T18:01:09.297Z,2.40
2019-05-05T18:03:38.366Z,2.43
2019-05-05T18:06:25.086Z,2.40
2019-05-05T18:09:11.272Z,2.00
2019-05-05T18:11:57.997Z,2.30
2019-05-05T18:14:27.421Z,2.00
2019-05-05T18:16:56.423Z,1.77
2019-05-05T18:19:25.474Z,1.83
2019-05-05T18:21:54.850Z,1.93
2019-05-05T18:24:26.081Z,1.80
2019-05-05T18:26:55.162Z,2.10
2019-05-05T18:29:24.384Z,1.70
2019-05-05T18:31:53.725Z,2.33
2019-05-05T18:34:23.569Z,2.33
2019-05-05T18:36:54.473Z,1.97
2019-05-05T18:39:24.734Z,1.90
2019-05-05T18:42:04.806Z,2.10
2019-05-05T18:44:37.249Z,2.43
2019-05-05T18:47:17.865Z,2.20
2019-05-05T18:49:44.311Z,2.60
2019-05-05T18:52:14.503Z,1.83
2019-05-05T18:54:43.789Z,2.30
2019-05-05T18:57:13.053Z,1.83
2019-05-05T18:59:42.110Z,2.13
2019-05-05T19:02:18.078Z,2.00
2019-05-05T19:05:09.210Z,2.40
2019-05-05T19:07:54.486Z,2.10
2019-05-05T19:10:12.306Z,2.07
2019-05-05T19:12:41.415Z,2.37
2019-05-05T19:15:13.608Z,3.47
2019-05-05T19:17:42.838Z,2.10
2019-05-05T19:20:19.087Z,2.47
2019-05-05T19:22:50.254Z,2.70
2019-05-05T19:25:19.410Z,3.23
2019-05-05T19:27:48.518Z,2.27
2019-05-05T19:30:17.842Z,2.87
2019-05-05T19:32:46.953Z,3.03
2019-05-05T19:35:15.992Z,2.83
2019-05-05T19:37:45.044Z,2.60
2019-05-05T19:40:14.255Z,2.73
2019-05-05T19:42:45.980Z,2.67
2019-05-05T19:45:14.214Z,3.30
2019-05-05T19:47:43.856Z,3.10
2019-05-05T19:50:27.065Z,2.80
2019-05-05T19:52:56.174Z,3.10
2019-05-05T19:55:26.518Z,3.27
2019-05-05T19:57:55.576Z,3.00
2019-05-05T20:00:26.405Z,2.80
2019-05-05T20:03:04.462Z,3.10
2019-05-05T20:05:27.694Z,2.50
2019-05-05T20:07:56.858Z,3.20
2019-05-05T20:10:25.924Z,3.67
2019-05-05T20:12:54.960Z,2.90
2019-05-05T20:15:31.141Z,3.20
2019-05-05T20:18:00.298Z,3.00
2019-05-05T20:20:29.282Z,2.97
2019-05-05T20:22:58.366Z,3.00
2019-05-05T20:25:27.492Z,3.00
2019-05-05T20:27:56.558Z,3.00
2019-05-05T20:30:25.610Z,2.93
2019-05-05T20:33:16.367Z,3.20
2019-05-05T20:35:54.500Z,2.97
2019-05-05T20:38:28.832Z,2.43
2019-05-05T20:41:16.990Z,2.60
2019-05-05T20:43:46.011Z,3.00
2019-05-05T20:46:15.149Z,3.00
2019-05-05T20:48:44.985Z,3.20
2019-05-05T20:51:14.105Z,2.80
2019-05-05T20:53:45.153Z,2.43
2019-05-05T20:56:14.973Z,3.00
2019-05-05T20:58:44.189Z,3.13
2019-05-05T21:01:14.016Z,3.07
2019-05-05T21:03:43.269Z,2.90
2019-05-05T21:06:13.894Z,2.53
2019-05-05T21:08:44.065Z,3.13
2019-05-05T21:11:14.161Z,3.00
2019-05-05T21:13:45.055Z,2.67
2019-05-05T21:16:14.371Z,3.00
2019-05-05T21:18:44.816Z,2.90
2019-05-05T21:21:20.034Z,2.90
2019-05-05T21:23:54.672Z,3.07
2019-05-05T21:26:28.384Z,3.03
2019-05-05T21:28:57.362Z,2.90
2019-05-05T21:31:26.487Z,3.30
2019-05-05T21:33:55.557Z,3.80
2019-05-05T21:36:24.690Z,3.20
2019-05-05T21:38:54.858Z,3.37
2019-05-05T21:41:24.540Z,3.10
2019-05-05T21:43:54.082Z,3.30
2019-05-05T21:46:24.017Z,2.87
2019-05-05T21:48:54.390Z,3.00
2019-05-05T21:51:36.028Z,2.90
2019-05-05T21:54:23.537Z,2.80
2019-05-05T21:57:04.255Z,3.27
2019-05-05T21:59:33.732Z,3.00
2019-05-05T22:02:03.927Z,3.30
2019-05-05T22:04:33.804Z,2.87
2019-05-05T22:07:03.716Z,3.07
2019-05-05T22:09:32.935Z,3.00
2019-05-05T22:12:04.048Z,3.00
2019-05-05T22:14:34.109Z,3.00
2019-05-05T22:17:04.140Z,3.37
2019-05-05T22:19:35.731Z,3.13
2019-05-05T22:22:09.079Z,2.80
2019-05-05T22:24:37.776Z,3.20
2019-05-05T22:27:06.830Z,2.70
2019-05-05T22:29:36.546Z,3.00
2019-05-05T22:32:06.300Z,2.83
2019-05-05T22:34:35.431Z,3.27
2019-05-05T22:37:08.939Z,2.90
2019-05-05T22:39:35.255Z,2.73
2019-05-05T22:42:04.803Z,3.40
2019-05-05T22:44:34.078Z,3.17
2019-05-05T22:47:04.650Z,2.63
2019-05-05T22:49:33.858Z,3.03
2019-05-05T22:52:03.832Z,3.47
2019-05-05T22:54:33.615Z,2.93
2019-05-05T22:57:04.647Z,3.00
2019-05-05T22:59:33.511Z,2.57
2019-05-05T23:02:03.973Z,3.27
2019-05-05T23:04:38.737Z,2.77
2019-05-05T23:07:14.295Z,3.00
2019-05-05T23:10:04.465Z,2.83
2019-05-05T23:12:34.990Z,2.67
2019-05-05T23:15:04.111Z,3.10
2019-05-05T23:18:00.853Z,3.33
2019-05-05T23:21:06.661Z,3.00
2019-05-05T23:23:56.054Z,3.17
2019-05-05T23:26:25.431Z,2.53
2019-05-05T23:28:54.526Z,2.57
2019-05-05T23:31:24.117Z,2.80
2019-05-05T23:33:54.898Z,3.20
2019-05-05T23:36:25.201Z,3.27
2019-05-05T23:38:54.952Z,3.50
2019-05-05T23:41:24.062Z,2.70
2019-05-05T23:43:54.501Z,4.07
2019-05-05T23:46:24.147Z,3.00
2019-05-05T23:48:53.775Z,3.00
2019-05-05T23:51:24.198Z,2.50
2019-05-05T23:53:55.119Z,3.47
2019-05-05T23:56:25.557Z,2.93
2019-05-05T23:58:55.084Z,3.00
